createdAt,value
2018-09-26T00:02:29.475Z,9.95
2018-09-26T00:04:58.241Z,9.56
2018-09-26T00:07:26.967Z,9.55
2018-09-26T00:09:55.693Z,9.66
2018-09-26T00:12:24.426Z,9.50
2018-09-26T00:14:53.183Z,9.12
2018-09-26T00:17:21.885Z,8.93
2018-09-26T00:19:50.578Z,8.90
2018-09-26T00:22:19.330Z,9.14
2018-09-26T00:24:48.177Z,8.79
2018-09-26T00:27:16.924Z,8.65
2018-09-26T00:29:45.635Z,8.68
2018-09-26T00:32:14.316Z,8.73
2018-09-26T00:34:43.053Z,8.56
2018-09-26T00:37:11.903Z,8.74
2018-09-26T00:39:40.666Z,8.79
2018-09-26T00:42:09.413Z,8.69
2018-09-26T00:44:38.099Z,8.54
2018-09-26T00:47:06.844Z,8.56
2018-09-26T00:49:35.500Z,8.70
2018-09-26T00:52:04.151Z,8.20
2018-09-26T00:54:32.885Z,8.19
2018-09-26T00:57:01.540Z,8.06
2018-09-26T00:59:30.196Z,7.81
2018-09-26T01:01:58.851Z,7.95
2018-09-26T01:04:27.598Z,8.03
2018-09-26T01:06:56.259Z,8.23
2018-09-26T01:09:24.943Z,8.10
2018-09-26T01:11:53.741Z,8.46
2018-09-26T01:14:22.370Z,8.63
2018-09-26T01:16:51.042Z,8.46
2018-09-26T01:19:19.728Z,8.45
2018-09-26T01:21:48.380Z,8.17
2018-09-26T01:24:17.049Z,7.82
2018-09-26T01:26:45.793Z,7.45
2018-09-26T01:29:14.544Z,7.16
2018-09-26T01:31:43.296Z,7.05
2018-09-26T01:34:12.012Z,6.61
2018-09-26T01:36:40.692Z,6.55
2018-09-26T01:39:10.074Z,6.58
2018-09-26T01:41:38.930Z,6.63
2018-09-26T01:44:07.615Z,6.33
2018-09-26T01:46:36.358Z,6.10
2018-09-26T01:49:05.133Z,5.98
2018-09-26T01:51:33.903Z,5.95
2018-09-26T01:54:02.624Z,6.08
2018-09-26T01:56:31.353Z,5.97
2018-09-26T01:59:00.120Z,6.38
2018-09-26T02:01:29.041Z,6.32
2018-09-26T02:03:57.764Z,6.16
2018-09-26T02:06:26.449Z,6.15
2018-09-26T02:08:55.160Z,5.43
2018-09-26T02:11:23.841Z,6.20
2018-09-26T02:13:52.493Z,6.22
2018-09-26T02:16:21.189Z,6.46
2018-09-26T02:18:49.803Z,6.36
2018-09-26T02:21:18.471Z,6.33
2018-09-26T02:23:47.178Z,6.47
2018-09-26T02:26:15.854Z,6.42
2018-09-26T02:28:44.491Z,6.54
2018-09-26T02:31:13.157Z,6.50
2018-09-26T02:33:41.826Z,6.48
2018-09-26T02:36:10.504Z,6.60
2018-09-26T02:38:39.165Z,6.48
2018-09-26T02:41:07.848Z,6.55
2018-09-26T02:43:36.705Z,6.76
2018-09-26T02:46:05.431Z,6.79
2018-09-26T02:48:39.345Z,6.85
2018-09-26T02:51:08.015Z,6.98
2018-09-26T02:53:36.624Z,6.94
2018-09-26T02:56:05.300Z,6.90
2018-09-26T02:58:34.061Z,6.81
2018-09-26T03:01:02.743Z,6.81
2018-09-26T03:03:31.595Z,6.92
2018-09-26T03:06:00.237Z,7.11
2018-09-26T03:08:28.876Z,7.20
2018-09-26T03:10:57.664Z,7.25
2018-09-26T03:13:26.398Z,7.28
2018-09-26T03:15:55.020Z,7.19
2018-09-26T03:18:23.761Z,7.18
2018-09-26T03:20:52.557Z,7.18
2018-09-26T03:23:21.249Z,7.12
2018-09-26T03:25:50.013Z,7.11
2018-09-26T03:28:18.705Z,7.24
2018-09-26T03:30:47.412Z,7.29
2018-09-26T03:33:16.252Z,7.56
2018-09-26T03:35:44.939Z,7.92
2018-09-26T03:38:13.678Z,8.15
2018-09-26T03:40:42.303Z,8.18
2018-09-26T03:43:11.169Z,8.34
2018-09-26T03:45:39.925Z,8.29
2018-09-26T03:48:08.680Z,8.24
2018-09-26T03:50:37.398Z,8.41
2018-09-26T03:53:06.106Z,8.50
2018-09-26T03:55:34.842Z,8.17
2018-09-26T03:58:03.562Z,7.73
2018-09-26T04:00:32.277Z,7.19
2018-09-26T04:03:01.210Z,7.08
2018-09-26T04:05:29.915Z,6.70
2018-09-26T04:07:58.631Z,6.29
2018-09-26T04:10:27.332Z,6.14
2018-09-26T04:12:56.093Z,5.99
2018-09-26T04:15:24.760Z,6.16
2018-09-26T04:17:53.400Z,6.12
2018-09-26T04:20:22.079Z,6.25
2018-09-26T04:22:51.117Z,6.19
2018-09-26T04:25:19.970Z,5.83
2018-09-26T04:27:48.780Z,5.68
2018-09-26T04:30:17.667Z,5.64
2018-09-26T04:32:46.334Z,5.67
2018-09-26T04:35:14.929Z,5.88
2018-09-26T04:37:43.625Z,6.04
2018-09-26T04:40:12.361Z,6.34
2018-09-26T04:42:41.048Z,6.65
2018-09-26T04:45:09.746Z,6.99
2018-09-26T04:47:42.230Z,7.31
2018-09-26T04:50:10.901Z,7.49
2018-09-26T04:52:39.682Z,7.94
2018-09-26T04:55:08.456Z,8.36
2018-09-26T04:57:37.150Z,9.11
2018-09-26T05:00:07.532Z,9.86
2018-09-26T05:02:36.166Z,9.61
2018-09-26T05:05:19.316Z,9.69
2018-09-26T05:07:48.080Z,9.70
2018-09-26T05:10:16.757Z,9.64
2018-09-26T05:12:45.468Z,9.93
2018-09-26T05:15:14.260Z,9.73
2018-09-26T05:17:43.019Z,8.23
2018-09-26T05:20:11.793Z,10.17
2018-09-26T05:22:40.496Z,10.13
2018-09-26T05:25:09.371Z,10.60
2018-09-26T05:27:38.207Z,10.67
2018-09-26T05:30:07.072Z,11.05
2018-09-26T05:32:35.723Z,11.21
2018-09-26T05:35:04.444Z,11.33
2018-09-26T05:37:33.073Z,11.28
2018-09-26T05:40:01.833Z,10.92
2018-09-26T05:42:30.605Z,11.31
2018-09-26T05:44:59.279Z,11.66
2018-09-26T05:47:28.073Z,11.72
2018-09-26T05:49:56.766Z,11.89
2018-09-26T05:52:25.435Z,11.97
2018-09-26T05:54:54.625Z,11.89
2018-09-26T05:57:23.403Z,12.20
2018-09-26T05:59:52.171Z,12.18
2018-09-26T06:02:20.856Z,11.95
2018-09-26T06:04:49.705Z,12.22
2018-09-26T06:07:18.347Z,12.00
2018-09-26T06:09:46.991Z,11.49
2018-09-26T06:12:15.766Z,12.08
2018-09-26T06:14:44.453Z,12.24
2018-09-26T06:17:13.136Z,12.14
2018-09-26T06:19:41.780Z,12.64
2018-09-26T06:22:10.621Z,12.54
2018-09-26T06:24:39.459Z,13.07
2018-09-26T06:27:08.289Z,13.38
2018-09-26T06:29:37.284Z,13.60
2018-09-26T06:32:06.162Z,12.92
2018-09-26T06:34:34.859Z,13.33
2018-09-26T06:37:03.580Z,13.65
2018-09-26T06:39:32.345Z,13.65
2018-09-26T06:42:01.236Z,13.49
2018-09-26T06:44:29.849Z,13.45
2018-09-26T06:46:58.487Z,13.78
2018-09-26T06:49:27.214Z,13.50
2018-09-26T06:51:55.884Z,14.16
2018-09-26T06:54:24.678Z,14.18
2018-09-26T06:56:53.316Z,14.42
2018-09-26T06:59:21.989Z,14.44
2018-09-26T07:01:50.651Z,13.84
2018-09-26T07:04:19.347Z,13.93
2018-09-26T07:06:47.990Z,14.09
2018-09-26T07:09:16.779Z,14.33
2018-09-26T07:11:45.543Z,14.60
2018-09-26T07:14:14.216Z,14.46
2018-09-26T07:16:43.035Z,14.54
2018-09-26T07:19:11.827Z,14.28
2018-09-26T07:21:40.511Z,14.07
2018-09-26T07:24:09.217Z,14.52
2018-09-26T07:26:37.959Z,14.85
2018-09-26T07:29:06.804Z,14.80
2018-09-26T07:31:35.599Z,13.52
2018-09-26T07:34:04.244Z,14.52
2018-09-26T07:36:33.064Z,15.00
2018-09-26T07:39:01.848Z,15.34
2018-09-26T07:41:30.725Z,15.25
2018-09-26T07:43:59.433Z,14.85
2018-09-26T07:46:28.360Z,15.05
2018-09-26T07:48:57.123Z,15.52
2018-09-26T07:51:25.873Z,15.37
2018-09-26T07:53:54.707Z,15.44
2018-09-26T07:56:23.477Z,13.58
2018-09-26T07:58:52.136Z,14.72
2018-09-26T08:01:20.904Z,14.88
2018-09-26T08:03:49.697Z,15.21
2018-09-26T08:06:18.474Z,15.39
2018-09-26T08:08:47.200Z,15.43
2018-09-26T08:11:16.013Z,16.07
2018-09-26T08:13:44.725Z,15.43
2018-09-26T08:16:13.488Z,15.41
2018-09-26T08:18:42.352Z,15.54
2018-09-26T08:21:11.134Z,15.04
2018-09-26T08:23:40.122Z,15.21
2018-09-26T08:26:08.853Z,15.23
2018-09-26T08:28:37.676Z,15.49
2018-09-26T08:31:06.525Z,16.37
2018-09-26T08:33:35.332Z,16.70
2018-09-26T08:36:04.036Z,15.46
2018-09-26T08:38:32.864Z,15.58
2018-09-26T08:41:01.593Z,16.15
2018-09-26T08:43:30.340Z,16.65
2018-09-26T08:45:59.054Z,16.52
2018-09-26T08:48:27.889Z,16.16
2018-09-26T08:50:56.568Z,15.63
2018-09-26T08:53:25.766Z,17.42
2018-09-26T08:55:55.676Z,18.35
2018-09-26T08:58:24.486Z,19.49
2018-09-26T09:00:54.640Z,19.22
2018-09-26T09:03:23.393Z,18.39
2018-09-26T09:05:52.541Z,19.08
2018-09-26T09:08:21.342Z,18.17
2018-09-26T09:10:50.048Z,16.43
2018-09-26T09:13:18.835Z,15.03
2018-09-26T09:15:47.606Z,14.54
2018-09-26T09:18:16.328Z,14.21
2018-09-26T09:20:45.093Z,14.32
2018-09-26T09:23:13.825Z,15.57
2018-09-26T09:25:42.628Z,16.86
2018-09-26T09:28:11.440Z,16.67
2018-09-26T09:30:40.200Z,15.84
2018-09-26T09:33:08.980Z,16.22
2018-09-26T09:35:37.670Z,15.50
2018-09-26T09:38:06.792Z,15.10
2018-09-26T09:40:35.584Z,16.27
2018-09-26T09:43:04.385Z,15.80
2018-09-26T09:45:33.032Z,16.09
2018-09-26T09:48:01.731Z,16.40
2018-09-26T09:50:30.398Z,15.11
2018-09-26T09:52:59.140Z,14.99
2018-09-26T09:55:27.929Z,15.01
2018-09-26T09:57:56.980Z,15.02
2018-09-26T10:00:30.889Z,15.96
2018-09-26T10:02:59.743Z,17.12
2018-09-26T10:05:28.402Z,17.24
2018-09-26T10:07:57.177Z,16.97
2018-09-26T10:10:26.440Z,17.53
2018-09-26T10:12:55.268Z,17.59
2018-09-26T10:15:24.017Z,17.19
2018-09-26T10:17:52.764Z,17.71
2018-09-26T10:20:21.614Z,18.31
2018-09-26T10:22:50.368Z,18.51
2018-09-26T10:25:19.092Z,16.40
2018-09-26T10:27:47.767Z,16.24
2018-09-26T10:30:19.150Z,16.68
2018-09-26T10:32:47.800Z,16.36
2018-09-26T10:35:16.519Z,15.94
2018-09-26T10:37:45.256Z,16.55
2018-09-26T10:40:14.149Z,16.92
2018-09-26T10:42:42.895Z,17.48
2018-09-26T10:45:11.919Z,17.59
2018-09-26T10:47:40.619Z,17.72
2018-09-26T10:50:10.198Z,15.88
2018-09-26T10:52:38.867Z,16.52
2018-09-26T10:55:07.651Z,16.56
2018-09-26T10:57:36.276Z,17.40
2018-09-26T11:00:06.196Z,18.06
2018-09-26T11:02:34.960Z,18.74
2018-09-26T11:05:03.747Z,18.57
2018-09-26T11:07:32.402Z,16.78
2018-09-26T11:10:01.056Z,15.66
2018-09-26T11:12:29.880Z,15.18
2018-09-26T11:14:58.646Z,16.54
2018-09-26T11:17:27.428Z,17.69
2018-09-26T11:19:56.070Z,17.40
2018-09-26T11:22:24.838Z,17.70
2018-09-26T11:24:53.433Z,17.92
2018-09-26T11:27:22.132Z,18.10
2018-09-26T11:29:50.840Z,18.76
2018-09-26T11:32:19.679Z,18.16
2018-09-26T11:34:48.443Z,18.12
2018-09-26T11:37:17.219Z,18.42
2018-09-26T11:39:46.008Z,17.01
2018-09-26T11:42:14.768Z,15.96
2018-09-26T11:44:43.523Z,16.69
2018-09-26T11:47:12.426Z,17.30
2018-09-26T11:49:41.233Z,16.75
2018-09-26T11:52:09.998Z,17.09
2018-09-26T11:54:38.766Z,17.54
2018-09-26T11:57:07.567Z,17.89
2018-09-26T11:59:36.271Z,17.89
2018-09-26T12:02:04.977Z,18.14
2018-09-26T12:04:33.702Z,16.98
2018-09-26T12:07:02.725Z,16.64
2018-09-26T12:09:31.380Z,17.73
2018-09-26T12:12:00.121Z,18.07
2018-09-26T12:14:28.883Z,17.78
2018-09-26T12:16:57.624Z,17.85
2018-09-26T12:19:26.474Z,17.97
2018-09-26T12:21:55.288Z,17.55
2018-09-26T12:24:24.134Z,16.71
2018-09-26T12:26:52.779Z,15.79
2018-09-26T12:29:21.519Z,15.37
2018-09-26T12:31:50.214Z,15.65
2018-09-26T12:34:19.020Z,16.40
2018-09-26T12:36:47.818Z,15.33
2018-09-26T12:39:16.522Z,14.80
2018-09-26T12:41:45.400Z,14.77
2018-09-26T12:44:14.087Z,14.52
2018-09-26T12:46:42.803Z,14.46
2018-09-26T12:49:11.574Z,14.16
2018-09-26T12:51:40.330Z,14.52
2018-09-26T12:54:09.057Z,15.29
2018-09-26T12:56:37.861Z,15.72
2018-09-26T12:59:06.629Z,15.57
2018-09-26T13:01:35.405Z,15.54
2018-09-26T13:04:04.154Z,15.47
2018-09-26T13:06:32.880Z,14.93
2018-09-26T13:09:01.584Z,14.92
2018-09-26T13:11:30.281Z,14.87
2018-09-26T13:13:59.028Z,14.81
2018-09-26T13:16:27.879Z,14.67
2018-09-26T13:18:56.710Z,14.63
2018-09-26T13:21:25.414Z,14.60
2018-09-26T13:23:54.107Z,14.69
2018-09-26T13:26:22.973Z,14.89
2018-09-26T13:28:51.725Z,14.93
2018-09-26T13:31:20.195Z,14.94
2018-09-26T13:33:48.949Z,14.99
2018-09-26T13:36:17.689Z,14.39
2018-09-26T13:38:46.436Z,14.19
2018-09-26T13:41:15.251Z,14.03
2018-09-26T13:43:44.006Z,13.83
2018-09-26T13:46:12.840Z,13.71
2018-09-26T13:48:42.058Z,13.49
2018-09-26T13:51:10.823Z,13.10
2018-09-26T13:53:39.660Z,13.15
2018-09-26T13:56:08.412Z,13.10
2018-09-26T13:58:37.231Z,13.31
2018-09-26T14:01:05.953Z,13.38
2018-09-26T14:03:34.824Z,13.39
2018-09-26T14:06:03.546Z,13.36
2018-09-26T14:08:32.269Z,13.13
2018-09-26T14:11:01.080Z,13.25
2018-09-26T14:13:29.863Z,13.29
2018-09-26T14:15:58.571Z,13.30
2018-09-26T14:18:27.413Z,13.22
2018-09-26T14:20:56.179Z,13.05
2018-09-26T14:23:24.993Z,13.09
2018-09-26T14:25:53.820Z,13.05
2018-09-26T14:28:22.673Z,12.95
2018-09-26T14:30:51.615Z,12.85
2018-09-26T14:33:20.418Z,12.76
2018-09-26T14:35:49.078Z,12.70
2018-09-26T14:38:17.800Z,12.71
2018-09-26T14:40:46.513Z,12.69
2018-09-26T14:43:15.296Z,12.61
2018-09-26T14:45:44.143Z,12.64
2018-09-26T14:48:12.800Z,12.63
2018-09-26T14:50:41.671Z,12.63
2018-09-26T14:53:10.373Z,12.60
2018-09-26T14:55:39.089Z,12.57
2018-09-26T14:58:08.745Z,12.42
2018-09-26T15:00:37.664Z,12.36
2018-09-26T15:03:06.453Z,12.36
2018-09-26T15:05:35.232Z,12.37
2018-09-26T15:08:03.908Z,12.37
2018-09-26T15:10:32.729Z,12.28
2018-09-26T15:13:01.540Z,12.22
2018-09-26T15:15:30.360Z,12.12
2018-09-26T15:17:59.152Z,12.01
2018-09-26T15:20:28.073Z,11.95
2018-09-26T15:22:56.855Z,11.95
2018-09-26T15:25:25.559Z,11.99
2018-09-26T15:27:54.375Z,11.99
2018-09-26T15:30:23.221Z,11.96
2018-09-26T15:32:51.795Z,11.96
2018-09-26T15:35:20.487Z,12.03
2018-09-26T15:37:49.596Z,12.06
2018-09-26T15:40:18.623Z,11.92
2018-09-26T15:42:47.274Z,11.88
2018-09-26T15:45:15.951Z,11.91
2018-09-26T15:47:44.710Z,11.81
2018-09-26T15:50:13.468Z,11.74
2018-09-26T15:52:42.263Z,11.79
2018-09-26T15:55:11.021Z,11.85
2018-09-26T15:57:39.768Z,11.84
2018-09-26T16:00:08.611Z,11.71
2018-09-26T16:02:37.376Z,11.70
2018-09-26T16:05:06.859Z,11.69
2018-09-26T16:07:35.566Z,11.56
2018-09-26T16:10:04.446Z,11.45
2018-09-26T16:12:33.516Z,11.43
2018-09-26T16:15:02.365Z,11.33
2018-09-26T16:17:31.072Z,11.32
2018-09-26T16:20:00.012Z,11.35
2018-09-26T16:22:28.794Z,11.21
2018-09-26T16:24:57.581Z,11.17
2018-09-26T16:27:26.250Z,11.15
2018-09-26T16:29:54.984Z,11.16
2018-09-26T16:32:23.798Z,11.16
2018-09-26T16:34:52.576Z,11.08
2018-09-26T16:37:21.271Z,11.09
2018-09-26T16:39:49.968Z,11.07
2018-09-26T16:42:18.767Z,11.08
2018-09-26T16:44:47.429Z,11.08
2018-09-26T16:47:16.163Z,11.00
2018-09-26T16:49:45.312Z,10.90
2018-09-26T16:52:14.709Z,10.82
2018-09-26T16:54:43.533Z,10.76
2018-09-26T16:57:12.755Z,10.66
2018-09-26T16:59:41.662Z,10.71
2018-09-26T17:02:13.552Z,10.70
2018-09-26T17:04:42.415Z,10.63
2018-09-26T17:07:11.182Z,10.66
2018-09-26T17:09:39.992Z,10.61
2018-09-26T17:12:08.813Z,10.64
2018-09-26T17:14:37.588Z,10.56
2018-09-26T17:17:06.279Z,10.57
2018-09-26T17:19:34.992Z,10.52
2018-09-26T17:22:03.860Z,10.43
2018-09-26T17:24:32.646Z,10.30
2018-09-26T17:27:01.447Z,10.14
2018-09-26T17:29:30.251Z,10.07
2018-09-26T17:31:58.911Z,9.96
2018-09-26T17:34:27.701Z,8.53
2018-09-26T17:36:56.480Z,9.81
2018-09-26T17:39:25.147Z,9.77
2018-09-26T17:41:53.852Z,9.78
2018-09-26T17:44:22.589Z,9.75
2018-09-26T17:46:51.261Z,9.68
2018-09-26T17:49:20.009Z,9.67
2018-09-26T17:51:48.848Z,7.82
2018-09-26T17:54:17.772Z,9.45
2018-09-26T17:56:46.725Z,9.41
2018-09-26T17:59:15.468Z,9.38
2018-09-26T18:01:44.126Z,8.01
2018-09-26T18:04:12.906Z,9.38
2018-09-26T18:06:41.652Z,9.38
2018-09-26T18:09:11.518Z,9.38
2018-09-26T18:11:40.292Z,9.31
2018-09-26T18:14:09.245Z,9.26
2018-09-26T18:16:38.749Z,9.19
2018-09-26T18:19:08.123Z,9.15
2018-09-26T18:21:36.972Z,9.12
2018-09-26T18:24:05.900Z,9.09
2018-09-26T18:26:34.660Z,9.05
2018-09-26T18:29:03.377Z,8.97
2018-09-26T18:31:32.344Z,8.91
2018-09-26T18:34:01.060Z,8.83
2018-09-26T18:36:29.773Z,8.83
2018-09-26T18:38:58.547Z,8.80
2018-09-26T18:41:27.319Z,8.72
2018-09-26T18:43:56.111Z,8.68
2018-09-26T18:46:24.789Z,8.63
2018-09-26T18:48:53.540Z,8.70
2018-09-26T18:51:22.391Z,8.66
2018-09-26T18:53:51.125Z,8.61
2018-09-26T18:56:19.952Z,8.60
2018-09-26T18:58:48.997Z,8.58
2018-09-26T19:01:18.208Z,8.37
2018-09-26T19:06:34.113Z,8.44
2018-09-26T19:09:02.917Z,8.50
2018-09-26T19:11:31.681Z,8.49
2018-09-26T19:14:00.448Z,8.50
2018-09-26T19:16:29.155Z,8.38
2018-09-26T19:18:57.913Z,8.29
2018-09-26T19:21:26.624Z,8.10
2018-09-26T19:23:55.486Z,8.16
2018-09-26T19:26:24.382Z,8.20
2018-09-26T19:28:53.069Z,8.18
2018-09-26T19:31:21.844Z,8.13
2018-09-26T19:33:50.614Z,7.95
2018-09-26T19:36:19.497Z,7.88
2018-09-26T19:38:48.398Z,7.91
2018-09-26T19:41:17.244Z,7.87
2018-09-26T19:43:46.060Z,7.80
2018-09-26T19:46:14.931Z,7.86
2018-09-26T19:48:43.692Z,7.88
2018-09-26T19:51:12.420Z,7.88
2018-09-26T19:53:41.188Z,7.76
2018-09-26T19:56:09.966Z,7.74
2018-09-26T19:58:38.698Z,7.65
2018-09-26T20:01:07.647Z,7.60
2018-09-26T20:03:36.424Z,7.59
2018-09-26T20:06:05.156Z,7.62
2018-09-26T20:08:34.061Z,7.61
2018-09-26T20:11:03.807Z,7.62
2018-09-26T20:13:32.520Z,7.61
2018-09-26T20:16:01.208Z,7.51
2018-09-26T20:18:30.012Z,7.48
2018-09-26T20:20:58.691Z,7.80
2018-09-26T20:23:27.548Z,7.91
2018-09-26T20:25:56.396Z,7.87
2018-09-26T20:28:25.304Z,7.91
2018-09-26T20:30:54.107Z,7.74
2018-09-26T20:33:22.778Z,7.59
2018-09-26T20:35:51.522Z,7.53
2018-09-26T20:38:20.409Z,7.57
2018-09-26T20:40:49.099Z,7.83
2018-09-26T20:43:17.904Z,7.93
2018-09-26T20:45:46.759Z,7.88
2018-09-26T20:48:15.539Z,7.84
2018-09-26T20:50:44.292Z,7.76
2018-09-26T20:53:13.073Z,7.64
2018-09-26T20:55:41.997Z,7.53
2018-09-26T20:58:10.814Z,7.53
2018-09-26T21:00:39.632Z,7.68
2018-09-26T21:03:08.489Z,7.64
2018-09-26T21:05:37.346Z,7.50
2018-09-26T21:08:06.096Z,7.91
2018-09-26T21:10:34.950Z,7.74
2018-09-26T21:13:03.770Z,7.67
2018-09-26T21:15:32.478Z,7.61
2018-09-26T21:18:01.244Z,7.43
2018-09-26T21:20:30.005Z,6.43
2018-09-26T21:22:58.865Z,7.37
2018-09-26T21:25:27.597Z,7.46
2018-09-26T21:27:56.309Z,7.27
2018-09-26T21:30:25.060Z,7.29
2018-09-26T21:32:53.824Z,7.30
2018-09-26T21:35:22.629Z,7.24
2018-09-26T21:37:51.519Z,7.13
2018-09-26T21:40:20.320Z,7.03
2018-09-26T21:42:49.068Z,6.85
2018-09-26T21:45:17.712Z,6.86
2018-09-26T21:47:46.497Z,6.98
2018-09-26T21:50:15.355Z,6.94
2018-09-26T21:52:44.058Z,6.73
2018-09-26T21:55:12.776Z,6.64
2018-09-26T21:57:41.456Z,6.70
2018-09-26T22:00:10.252Z,6.67
2018-09-26T22:02:38.971Z,6.48
2018-09-26T22:05:07.749Z,6.40
2018-09-26T22:07:36.661Z,6.22
2018-09-26T22:10:05.476Z,6.31
2018-09-26T22:12:34.080Z,6.57
2018-09-26T22:15:02.834Z,6.70
2018-09-26T22:17:31.578Z,6.49
2018-09-26T22:20:00.316Z,6.43
2018-09-26T22:22:31.864Z,6.50
2018-09-26T22:25:00.712Z,6.40
2018-09-26T22:27:29.419Z,6.29
2018-09-26T22:29:58.140Z,6.25
2018-09-26T22:32:26.865Z,6.26
2018-09-26T22:34:55.661Z,6.13
2018-09-26T22:37:24.396Z,5.94
2018-09-26T22:39:53.171Z,5.97
2018-09-26T22:42:21.868Z,5.94
2018-09-26T22:44:50.545Z,6.02
2018-09-26T22:47:19.404Z,6.01
2018-09-26T22:49:48.048Z,5.92
2018-09-26T22:52:16.875Z,5.85
2018-09-26T22:54:45.702Z,5.84
2018-09-26T22:57:14.395Z,5.84
2018-09-26T22:59:43.205Z,5.76
2018-09-26T23:02:11.896Z,5.71
2018-09-26T23:04:40.549Z,5.68
2018-09-26T23:07:09.223Z,5.66
2018-09-26T23:09:37.864Z,5.69
2018-09-26T23:12:06.801Z,5.87
2018-09-26T23:14:35.719Z,5.84
2018-09-26T23:17:04.460Z,5.95
2018-09-26T23:19:33.169Z,5.89
2018-09-26T23:22:01.925Z,5.84
2018-09-26T23:24:30.591Z,5.68
2018-09-26T23:26:59.310Z,5.73
2018-09-26T23:29:28.048Z,5.68
2018-09-26T23:31:56.857Z,5.70
2018-09-26T23:34:25.569Z,5.87
2018-09-26T23:36:54.223Z,5.80
2018-09-26T23:39:22.992Z,5.93
2018-09-26T23:41:51.695Z,5.86
2018-09-26T23:44:20.312Z,6.06
2018-09-26T23:46:49.008Z,6.13
2018-09-26T23:49:17.610Z,6.19
2018-09-26T23:51:46.309Z,6.10
2018-09-26T23:54:15.375Z,5.82
2018-09-26T23:56:44.079Z,5.77
2018-09-26T23:59:12.854Z,5.76
